createdAt,value
2018-02-10T00:02:19.862Z,97089.19
2018-02-10T00:04:47.400Z,97089.45
2018-02-10T00:07:14.954Z,97087.59
2018-02-10T00:09:42.489Z,97096.66
2018-02-10T00:12:10.022Z,97111.46
2018-02-10T00:14:37.650Z,97098.13
2018-02-10T00:17:05.869Z,97108.38
2018-02-10T00:19:33.524Z,97094.75
2018-02-10T00:22:01.078Z,97103.69
2018-02-10T00:24:28.599Z,97111.95
2018-02-10T00:26:56.147Z,97107.40
2018-02-10T00:29:23.739Z,97110.45
2018-02-10T00:31:51.278Z,97113.22
2018-02-10T00:34:19.198Z,97111.75
2018-02-10T00:36:46.971Z,97115.52
2018-02-10T00:39:14.514Z,97114.71
2018-02-10T00:41:42.026Z,97116.64
2018-02-10T00:44:09.570Z,97110.50
2018-02-10T00:46:37.082Z,97113.55
2018-02-10T00:49:04.602Z,97114.80
2018-02-10T00:51:32.182Z,97115.85
2018-02-10T00:53:59.709Z,97116.13
2018-02-10T00:56:27.233Z,97119.59
2018-02-10T00:58:54.817Z,97118.59
2018-02-10T01:01:22.339Z,97118.69
2018-02-10T01:03:49.857Z,97127.32
2018-02-10T01:06:17.423Z,97120.86
2018-02-10T01:08:44.945Z,97122.66
2018-02-10T01:11:12.468Z,97122.16
2018-02-10T01:13:40.026Z,97120.77
2018-02-10T01:16:07.558Z,97128.33
2018-02-10T01:18:35.084Z,97127.50
2018-02-10T01:21:03.517Z,97129.38
2018-02-10T01:23:31.041Z,97128.16
2018-02-10T01:25:58.573Z,97132.45
2018-02-10T01:28:26.130Z,97130.84
2018-02-10T01:30:53.654Z,97127.45
2018-02-10T01:33:21.169Z,97134.39
2018-02-10T01:35:48.729Z,97128.59
2018-02-10T01:38:16.262Z,97130.25
2018-02-10T01:40:43.800Z,97130.54
2018-02-10T01:43:11.347Z,97134.85
2018-02-10T01:45:38.861Z,97133.09
2018-02-10T01:48:06.388Z,97126.41
2018-02-10T01:50:33.937Z,97128.91
2018-02-10T01:53:01.491Z,97127.20
2018-02-10T01:55:29.022Z,97133.55
2018-02-10T01:57:56.565Z,97133.79
2018-02-10T02:00:24.093Z,97130.96
2018-02-10T02:02:51.610Z,97129.33
2018-02-10T02:05:19.158Z,97123.73
2018-02-10T02:07:46.720Z,97125.32
2018-02-10T02:10:14.232Z,97123.06
2018-02-10T02:12:41.777Z,97131.75
2018-02-10T02:15:09.293Z,97128.32
2018-02-10T02:17:36.831Z,97129.57
2018-02-10T02:20:04.385Z,97129.11
2018-02-10T02:22:31.901Z,97130.55
2018-02-10T02:24:59.420Z,97137.09
2018-02-10T02:27:26.971Z,97130.41
2018-02-10T02:29:54.492Z,97129.44
2018-02-10T02:32:22.030Z,97132.73
2018-02-10T02:34:49.566Z,97139.42
2018-02-10T02:37:17.086Z,97138.16
2018-02-10T02:39:44.642Z,97142.28
2018-02-10T02:42:12.165Z,97142.16
2018-02-10T02:44:39.689Z,97135.75
2018-02-10T02:47:07.285Z,97139.38
2018-02-10T02:49:34.801Z,97138.48
2018-02-10T02:52:02.352Z,97140.16
2018-02-10T02:54:29.909Z,97143.73
2018-02-10T02:56:57.425Z,97144.34
2018-02-10T02:59:24.978Z,97148.20
2018-02-10T03:01:52.500Z,97151.77
2018-02-10T03:04:20.039Z,97141.13
2018-02-10T03:06:47.594Z,97140.20
2018-02-10T03:09:15.118Z,97142.80
2018-02-10T03:11:42.686Z,97141.19
2018-02-10T03:14:10.197Z,97142.85
2018-02-10T03:16:37.788Z,97145.36
2018-02-10T03:19:05.347Z,97151.30
2018-02-10T03:21:32.869Z,97156.95
2018-02-10T03:24:00.414Z,97155.66
2018-02-10T03:26:27.962Z,97159.66
2018-02-10T03:28:55.517Z,97161.42
2018-02-10T03:31:23.069Z,97163.83
2018-02-10T03:33:50.580Z,97158.91
2018-02-10T03:36:18.133Z,97167.59
2018-02-10T03:38:45.731Z,97163.84
2018-02-10T03:41:13.269Z,97159.84
2018-02-10T03:43:40.842Z,97164.01
2018-02-10T03:46:08.362Z,97165.17
2018-02-10T03:48:35.922Z,97169.70
2018-02-10T03:51:03.435Z,97164.34
2018-02-10T03:53:30.978Z,97173.92
2018-02-10T03:55:58.521Z,97166.97
2018-02-10T03:58:26.033Z,97169.48
2018-02-10T04:00:53.577Z,97168.19
2018-02-10T04:03:21.100Z,97177.09
2018-02-10T04:05:48.648Z,97174.45
2018-02-10T04:08:16.203Z,97169.41
2018-02-10T04:10:43.732Z,97173.13
2018-02-10T04:13:11.285Z,97176.92
2018-02-10T04:15:38.800Z,97173.11
2018-02-10T04:18:06.389Z,97176.17
2018-02-10T04:20:33.935Z,97170.23
2018-02-10T04:23:01.453Z,97169.73
2018-02-10T04:25:29.006Z,97171.95
2018-02-10T04:27:56.530Z,97169.36
2018-02-10T04:30:24.236Z,97178.59
2018-02-10T04:32:51.747Z,97171.91
2018-02-10T04:35:19.285Z,97181.30
2018-02-10T04:37:46.830Z,97182.94
2018-02-10T04:40:14.346Z,97184.19
2018-02-10T04:42:41.924Z,97184.15
2018-02-10T04:45:09.462Z,97183.19
2018-02-10T04:47:36.981Z,97183.69
2018-02-10T04:50:04.517Z,97187.41
2018-02-10T04:52:32.038Z,97191.62
2018-02-10T04:54:59.601Z,97190.45
2018-02-10T04:57:27.145Z,97190.03
2018-02-10T04:59:54.670Z,97185.32
2018-02-10T05:02:22.225Z,97182.14
2018-02-10T05:04:49.794Z,97188.37
2018-02-10T05:07:17.358Z,97190.80
2018-02-10T05:09:44.890Z,97200.36
2018-02-10T05:12:12.413Z,97197.44
2018-02-10T05:14:39.964Z,97202.98
2018-02-10T05:17:07.481Z,97204.02
2018-02-10T05:19:35.214Z,97209.22
2018-02-10T05:22:02.733Z,97205.00
2018-02-10T05:24:30.253Z,97207.51
2018-02-10T05:26:57.800Z,97211.39
2018-02-10T05:29:25.317Z,97209.02
2018-02-10T05:31:53.110Z,97216.16
2018-02-10T05:34:20.630Z,97207.76
2018-02-10T05:36:48.197Z,97213.43
2018-02-10T05:39:15.745Z,97212.44
2018-02-10T05:41:43.269Z,97207.58
2018-02-10T05:44:11.699Z,97203.29
2018-02-10T05:46:39.219Z,97202.45
2018-02-10T05:49:06.740Z,97209.64
2018-02-10T05:51:34.297Z,97201.66
2018-02-10T05:54:01.809Z,97208.30
2018-02-10T05:56:29.537Z,97210.47
2018-02-10T05:58:57.069Z,97210.93
2018-02-10T06:01:24.989Z,97208.53
2018-02-10T06:03:52.530Z,97209.52
2018-02-10T06:06:20.037Z,97210.39
2018-02-10T06:08:47.598Z,97212.33
2018-02-10T06:11:15.122Z,97213.52
2018-02-10T06:13:42.633Z,97215.47
2018-02-10T06:16:10.181Z,97216.12
2018-02-10T06:18:37.699Z,97221.45
2018-02-10T06:21:05.463Z,97233.81
2018-02-10T06:23:32.981Z,97235.45
2018-02-10T06:26:00.498Z,97232.38
2018-02-10T06:28:28.055Z,97229.42
2018-02-10T06:30:55.581Z,97239.48
2018-02-10T06:33:23.325Z,97231.44
2018-02-10T06:35:50.851Z,97246.51
2018-02-10T06:38:18.362Z,97241.57
2018-02-10T06:40:45.907Z,97249.01
2018-02-10T06:43:13.420Z,97256.67
2018-02-10T06:45:40.977Z,97253.30
2018-02-10T06:48:08.502Z,97256.95
2018-02-10T06:50:36.158Z,97263.64
2018-02-10T06:53:03.711Z,97272.30
2018-02-10T06:55:31.226Z,97274.33
2018-02-10T06:57:59.021Z,97279.48
2018-02-10T07:00:26.537Z,97280.66
2018-02-10T07:02:54.053Z,97283.82
2018-02-10T07:05:21.597Z,97287.13
2018-02-10T07:07:49.113Z,97284.50
2018-02-10T07:10:16.817Z,97284.43
2018-02-10T07:12:44.346Z,97288.19
2018-02-10T07:15:12.324Z,97298.27
2018-02-10T07:17:39.874Z,97300.62
2018-02-10T07:20:08.189Z,97307.30
2018-02-10T07:22:36.153Z,97308.59
2018-02-10T07:25:03.698Z,97311.45
2018-02-10T07:27:31.216Z,97313.42
2018-02-10T07:29:58.757Z,97316.88
2018-02-10T07:32:26.270Z,97316.34
2018-02-10T07:34:54.153Z,97314.30
2018-02-10T07:37:21.670Z,97309.44
2018-02-10T07:39:49.189Z,97309.61
2018-02-10T07:42:16.729Z,97318.39
2018-02-10T07:44:44.246Z,97319.98
2018-02-10T07:47:12.153Z,97321.24
2018-02-10T07:49:39.686Z,97321.31
2018-02-10T07:52:07.249Z,97323.38
2018-02-10T07:54:34.799Z,97324.13
2018-02-10T07:57:02.314Z,97315.09
2018-02-10T07:59:29.878Z,97309.91
2018-02-10T08:01:57.392Z,97318.69
2018-02-10T08:04:24.962Z,97323.58
2018-02-10T08:06:52.580Z,97326.76
2018-02-10T08:09:20.198Z,97332.61
2018-02-10T08:11:47.941Z,97338.19
2018-02-10T08:14:15.632Z,97340.36
2018-02-10T08:16:43.230Z,97341.20
2018-02-10T08:19:10.913Z,97336.51
2018-02-10T08:21:38.600Z,97337.55
2018-02-10T08:24:06.187Z,97342.08
2018-02-10T08:26:33.743Z,97343.16
2018-02-10T08:29:01.256Z,97347.26
2018-02-10T08:31:28.833Z,97343.53
2018-02-10T08:33:56.595Z,97350.85
2018-02-10T08:36:24.427Z,97346.01
2018-02-10T08:38:51.946Z,97347.89
2018-02-10T08:41:19.513Z,97350.86
2018-02-10T08:43:47.150Z,97346.48
2018-02-10T08:46:14.718Z,97343.51
2018-02-10T08:48:43.199Z,97345.50
2018-02-10T08:51:11.270Z,97350.53
2018-02-10T08:53:38.925Z,97351.41
2018-02-10T08:56:06.608Z,97348.30
2018-02-10T08:58:34.664Z,97359.50
2018-02-10T09:01:02.340Z,97360.28
2018-02-10T09:03:30.192Z,97359.08
2018-02-10T09:05:57.800Z,97364.34
2018-02-10T09:08:25.619Z,97360.98
2018-02-10T09:10:53.279Z,97359.94
2018-02-10T09:13:21.102Z,97357.02
2018-02-10T09:15:48.737Z,97362.31
2018-02-10T09:18:16.367Z,97366.75
2018-02-10T09:20:44.245Z,97370.89
2018-02-10T09:23:12.614Z,97365.02
2018-02-10T09:25:40.695Z,97367.18
2018-02-10T09:28:08.521Z,97364.48
2018-02-10T09:30:36.419Z,97363.29
2018-02-10T09:33:04.258Z,97358.62
2018-02-10T09:35:32.150Z,97361.80
2018-02-10T09:38:00.258Z,97357.55
2018-02-10T09:40:28.087Z,97360.72
2018-02-10T09:42:55.765Z,97357.97
2018-02-10T09:45:23.717Z,97353.05
2018-02-10T09:47:51.584Z,97352.09
2018-02-10T09:50:19.961Z,97357.81
2018-02-10T09:52:48.032Z,97354.69
2018-02-10T09:55:15.798Z,97365.20
2018-02-10T09:57:43.664Z,97361.97
2018-02-10T10:00:12.056Z,97359.03
2018-02-10T10:02:40.422Z,97365.34
2018-02-10T10:05:08.148Z,97359.92
2018-02-10T10:07:36.050Z,97364.05
2018-02-10T10:10:04.019Z,97359.23
2018-02-10T10:12:31.783Z,97358.95
2018-02-10T10:14:59.716Z,97356.22
2018-02-10T10:17:27.482Z,97359.16
2018-02-10T10:19:55.691Z,97353.00
2018-02-10T10:22:23.658Z,97354.97
2018-02-10T10:24:51.525Z,97353.22
2018-02-10T10:27:19.672Z,97353.49
2018-02-10T10:29:47.564Z,97352.45
2018-02-10T10:32:15.431Z,97349.66
2018-02-10T10:34:43.174Z,97347.48
2018-02-10T10:37:11.018Z,97349.63
2018-02-10T10:39:38.928Z,97349.23
2018-02-10T10:42:06.698Z,97343.86
2018-02-10T10:44:34.516Z,97342.38
2018-02-10T10:47:02.387Z,97345.38
2018-02-10T10:49:30.291Z,97346.11
2018-02-10T10:51:58.312Z,97338.44
2018-02-10T10:54:26.013Z,97342.73
2018-02-10T10:56:53.845Z,97332.89
2018-02-10T10:59:21.509Z,97335.20
2018-02-10T11:01:49.214Z,97335.02
2018-02-10T11:04:17.250Z,97334.44
2018-02-10T11:06:45.118Z,97337.03
2018-02-10T11:09:12.983Z,97335.80
2018-02-10T11:11:40.825Z,97333.67
2018-02-10T11:14:08.647Z,97329.36
2018-02-10T11:16:36.985Z,97331.87
2018-02-10T11:19:04.897Z,97338.02
2018-02-10T11:21:33.067Z,97333.73
2018-02-10T11:24:00.982Z,97335.56
2018-02-10T11:26:29.008Z,97330.98
2018-02-10T11:28:57.186Z,97331.38
2018-02-10T11:31:25.150Z,97336.74
2018-02-10T11:33:53.032Z,97333.97
2018-02-10T11:36:20.783Z,97338.09
2018-02-10T11:38:48.644Z,97335.22
2018-02-10T11:41:16.617Z,97337.23
2018-02-10T11:43:44.467Z,97338.50
2018-02-10T11:46:12.457Z,97337.87
2018-02-10T11:48:40.314Z,97328.31
2018-02-10T11:51:08.796Z,97330.86
2018-02-10T11:53:37.072Z,97330.03
2018-02-10T11:56:04.836Z,97322.40
2018-02-10T11:58:32.702Z,97318.50
2018-02-10T12:01:00.630Z,97324.66
2018-02-10T12:03:28.344Z,97323.16
2018-02-10T12:05:56.301Z,97325.70
2018-02-10T12:08:24.135Z,97322.25
2018-02-10T12:10:52.034Z,97319.98
2018-02-10T12:13:19.969Z,97319.59
2018-02-10T12:15:47.957Z,97319.95
2018-02-10T12:18:16.103Z,97319.53
2018-02-10T12:20:44.114Z,97323.20
2018-02-10T12:23:11.880Z,97311.20
2018-02-10T12:25:39.907Z,97315.14
2018-02-10T12:28:07.815Z,97310.66
2018-02-10T12:30:36.064Z,97311.41
2018-02-10T12:33:03.957Z,97313.48
2018-02-10T12:35:31.824Z,97304.84
2018-02-10T12:37:59.792Z,97317.21
2018-02-10T12:40:28.171Z,97311.98
2018-02-10T12:42:56.242Z,97313.72
2018-02-10T12:45:24.086Z,97307.16
2018-02-10T12:47:57.830Z,97307.22
2018-02-10T12:50:26.095Z,97302.95
2018-02-10T12:52:53.954Z,97309.02
2018-02-10T12:55:22.601Z,97309.92
2018-02-10T12:57:51.517Z,97304.71
2018-02-10T13:00:19.704Z,97302.52
2018-02-10T13:02:47.650Z,97301.06
2018-02-10T13:05:16.256Z,97299.12
2018-02-10T13:07:44.185Z,97305.00
2018-02-10T13:10:12.501Z,97297.23
2018-02-10T13:12:40.471Z,97293.98
2018-02-10T13:15:08.541Z,97295.13
2018-02-10T13:17:36.408Z,97300.17
2018-02-10T13:20:04.787Z,97295.25
2018-02-10T13:22:32.609Z,97297.72
2018-02-10T13:25:01.134Z,97299.52
2018-02-10T13:27:29.000Z,97297.92
2018-02-10T13:29:56.881Z,97292.31
2018-02-10T13:32:24.874Z,97290.58
2018-02-10T13:34:53.067Z,97298.61
2018-02-10T13:37:20.934Z,97292.54
2018-02-10T13:39:50.083Z,97296.84
2018-02-10T13:42:19.142Z,97295.22
2018-02-10T13:44:47.035Z,97296.80
2018-02-10T13:47:14.901Z,97293.09
2018-02-10T13:49:44.270Z,97305.75
2018-02-10T13:52:13.711Z,97298.42
2018-02-10T13:54:41.852Z,97302.99
2018-02-10T13:57:09.718Z,97294.64
2018-02-10T13:59:37.613Z,97301.65
2018-02-10T14:02:05.581Z,97299.56
2018-02-10T14:04:34.742Z,97299.84
2018-02-10T14:07:02.747Z,97297.09
2018-02-10T14:09:30.615Z,97302.42
2018-02-10T14:11:58.480Z,97296.58
2018-02-10T14:14:28.190Z,97292.45
2018-02-10T14:16:57.489Z,97293.66
2018-02-10T14:19:25.458Z,97296.53
2018-02-10T14:21:53.735Z,97289.77
2018-02-10T14:24:21.705Z,97295.74
2018-02-10T14:26:49.673Z,97297.14
2018-02-10T14:29:17.539Z,97294.89
2018-02-10T14:31:45.776Z,97299.44
2018-02-10T14:34:13.680Z,97297.75
2018-02-10T14:36:41.453Z,97303.77
2018-02-10T14:39:10.205Z,97303.69
2018-02-10T14:41:38.100Z,97306.70
2018-02-10T14:44:06.181Z,97305.24
2018-02-10T14:46:34.856Z,97306.67
2018-02-10T14:49:02.723Z,97302.27
2018-02-10T14:51:30.589Z,97302.80
2018-02-10T14:53:58.660Z,97295.73
2018-02-10T14:56:26.592Z,97293.78
2018-02-10T14:58:54.904Z,97291.89
2018-02-10T15:01:22.874Z,97294.11
2018-02-10T15:03:50.817Z,97297.38
2018-02-10T15:06:18.684Z,97298.72
2018-02-10T15:08:46.851Z,97296.31
2018-02-10T15:11:14.750Z,97294.41
2018-02-10T15:13:43.332Z,97290.91
2018-02-10T15:16:11.311Z,97294.64
2018-02-10T15:18:40.091Z,97294.48
2018-02-10T15:21:08.133Z,97288.46
2018-02-10T15:23:37.107Z,97291.08
2018-02-10T15:26:05.020Z,97293.44
2018-02-10T15:28:33.284Z,97289.25
2018-02-10T15:31:13.962Z,97290.05
2018-02-10T15:33:53.911Z,97291.41
2018-02-10T15:36:22.905Z,97291.62
2018-02-10T15:38:50.874Z,97291.45
2018-02-10T15:41:18.716Z,97291.98
2018-02-10T15:43:46.606Z,97286.41
2018-02-10T15:46:14.574Z,97287.59
2018-02-10T15:48:43.465Z,97286.31
2018-02-10T15:51:11.438Z,97296.89
2018-02-10T15:53:39.813Z,97291.20
2018-02-10T15:56:08.814Z,97289.77
2018-02-10T15:58:36.673Z,97294.29
2018-02-10T16:01:05.460Z,97288.94
2018-02-10T16:03:33.390Z,97283.08
2018-02-10T16:06:02.020Z,97287.25
2018-02-10T16:08:29.980Z,97286.63
2018-02-10T16:10:58.768Z,97284.22
2018-02-10T16:13:26.634Z,97284.27
2018-02-10T16:15:54.697Z,97287.48
2018-02-10T16:18:22.674Z,97283.80
2018-02-10T16:20:50.751Z,97290.27
2018-02-10T16:23:18.612Z,97286.62
2018-02-10T16:25:46.479Z,97292.13
2018-02-10T16:28:14.446Z,97287.43
2018-02-10T16:30:42.216Z,97291.28
2018-02-10T16:33:11.413Z,97298.08
2018-02-10T16:35:39.276Z,97292.78
2018-02-10T16:38:07.449Z,97293.89
2018-02-10T16:40:36.442Z,97287.37
2018-02-10T16:43:04.309Z,97291.05
2018-02-10T16:45:33.506Z,97288.22
2018-02-10T16:48:01.441Z,97298.08
2018-02-10T16:50:29.342Z,97297.61
2018-02-10T16:52:57.922Z,97297.80
2018-02-10T16:55:25.684Z,97303.41
2018-02-10T16:57:53.559Z,97302.44
2018-02-10T17:00:21.421Z,97303.19
2018-02-10T17:02:49.390Z,97300.96
2018-02-10T17:05:17.157Z,97304.27
2018-02-10T17:07:45.800Z,97301.89
2018-02-10T17:10:13.766Z,97305.62
2018-02-10T17:12:41.675Z,97304.59
2018-02-10T17:15:10.042Z,97293.84
2018-02-10T17:17:38.129Z,97298.86
2018-02-10T17:20:06.814Z,97306.26
2018-02-10T17:22:34.984Z,97302.86
2018-02-10T17:25:02.851Z,97299.94
2018-02-10T17:27:31.638Z,97302.07
2018-02-10T17:29:59.402Z,97306.76
2018-02-10T17:32:27.268Z,97299.14
2018-02-10T17:34:55.340Z,97301.94
2018-02-10T17:37:23.005Z,97305.29
2018-02-10T17:39:51.890Z,97307.70
2018-02-10T17:42:19.540Z,97311.19
2018-02-10T17:44:47.397Z,97314.87
2018-02-10T17:47:15.389Z,97316.95
2018-02-10T17:49:43.255Z,97315.19
2018-02-10T17:52:11.015Z,97315.20
2018-02-10T17:54:39.297Z,97315.33
2018-02-10T17:57:07.105Z,97315.38
2018-02-10T17:59:35.130Z,97326.89
2018-02-10T18:02:03.071Z,97316.47
2018-02-10T18:04:31.075Z,97318.14
2018-02-10T18:06:59.549Z,97322.02
2018-02-10T18:09:27.414Z,97317.97
2018-02-10T18:11:55.555Z,97314.78
2018-02-10T18:14:23.251Z,97313.52
2018-02-10T18:16:51.114Z,97317.33
2018-02-10T18:19:19.000Z,97320.77
2018-02-10T18:21:46.606Z,97314.95
2018-02-10T18:24:14.175Z,97315.08
2018-02-10T18:26:41.712Z,97305.80
2018-02-10T18:29:09.324Z,97315.46
2018-02-10T18:31:37.093Z,97309.09
2018-02-10T18:34:04.965Z,97306.25
2018-02-10T18:36:33.535Z,97310.41
2018-02-10T18:39:01.508Z,97311.22
2018-02-10T18:41:29.261Z,97306.50
2018-02-10T18:43:57.239Z,97310.03
2018-02-10T18:46:24.950Z,97307.14
2018-02-10T18:48:53.404Z,97303.96
2018-02-10T18:51:21.449Z,97307.48
2018-02-10T18:53:50.242Z,97298.53
2018-02-10T18:56:18.721Z,97299.87
2018-02-10T18:58:47.305Z,97301.41
2018-02-10T19:01:15.274Z,97303.04
2018-02-10T19:03:43.859Z,97299.74
2018-02-10T19:06:11.863Z,97299.03
2018-02-10T19:08:39.811Z,97294.72
2018-02-10T19:11:07.617Z,97290.75
2018-02-10T19:13:35.732Z,97285.06
2018-02-10T19:16:04.512Z,97285.52
2018-02-10T19:18:32.388Z,97282.14
2018-02-10T19:21:00.356Z,97282.89
2018-02-10T19:23:28.287Z,97279.63
2018-02-10T19:25:56.502Z,97285.56
2018-02-10T19:28:24.371Z,97283.30
2018-02-10T19:30:52.749Z,97285.73
2018-02-10T19:33:20.711Z,97292.91
2018-02-10T19:35:48.582Z,97287.36
2018-02-10T19:38:16.711Z,97287.92
2018-02-10T19:40:44.619Z,97278.19
2018-02-10T19:43:12.484Z,97281.01
2018-02-10T19:45:40.661Z,97280.92
2018-02-10T19:48:09.038Z,97278.58
2018-02-10T19:50:37.124Z,97275.31
2018-02-10T19:53:05.036Z,97275.19
2018-02-10T19:55:32.943Z,97277.93
2018-02-10T19:58:00.806Z,97279.53
2018-02-10T20:00:29.108Z,97272.00
2018-02-10T20:02:56.850Z,97268.92
2018-02-10T20:05:24.809Z,97261.86
2018-02-10T20:07:52.685Z,97255.58
2018-02-10T20:10:20.554Z,97258.67
2018-02-10T20:12:50.884Z,97253.61
2018-02-10T20:15:19.564Z,97253.53
2018-02-10T20:17:47.326Z,97248.41
2018-02-10T20:20:15.601Z,97243.13
2018-02-10T20:22:43.435Z,97236.52
2018-02-10T20:25:11.335Z,97249.02
2018-02-10T20:27:39.304Z,97251.88
2018-02-10T20:30:10.756Z,97249.44
2018-02-10T20:32:38.827Z,97243.82
2018-02-10T20:35:06.586Z,97244.31
2018-02-10T20:37:34.458Z,97240.48
2018-02-10T20:40:02.343Z,97235.19
2018-02-10T20:42:30.393Z,97240.48
2018-02-10T20:44:58.259Z,97237.24
2018-02-10T20:47:26.287Z,97229.23
2018-02-10T20:49:54.570Z,97225.85
2018-02-10T20:52:22.268Z,97221.47
2018-02-10T20:54:50.545Z,97234.05
2018-02-10T20:57:18.320Z,97237.89
2018-02-10T20:59:46.176Z,97226.80
2018-02-10T21:02:14.864Z,97219.26
2018-02-10T21:04:42.781Z,97222.36
2018-02-10T21:07:10.784Z,97219.02
2018-02-10T21:09:38.626Z,97216.23
2018-02-10T21:12:06.634Z,97217.34
2018-02-10T21:14:34.605Z,97215.10
2018-02-10T21:17:02.747Z,97216.34
2018-02-10T21:19:31.059Z,97211.08
2018-02-10T21:21:58.816Z,97205.41
2018-02-10T21:24:26.682Z,97215.83
2018-02-10T21:26:54.652Z,97211.42
2018-02-10T21:29:22.929Z,97205.80
2018-02-10T21:31:50.747Z,97203.43
2018-02-10T21:34:18.514Z,97199.42
2018-02-10T21:36:46.425Z,97199.57
2018-02-10T21:39:15.372Z,97201.87
2018-02-10T21:41:43.800Z,97192.95
2018-02-10T21:44:11.731Z,97197.48
2018-02-10T21:46:39.971Z,97188.56
2018-02-10T21:49:08.113Z,97189.24
2018-02-10T21:51:35.979Z,97185.26
2018-02-10T21:54:07.327Z,97184.77
2018-02-10T21:56:36.070Z,97183.39
2018-02-10T21:59:03.983Z,97183.02
2018-02-10T22:01:31.951Z,97189.04
2018-02-10T22:03:59.926Z,97182.23
2018-02-10T22:06:27.690Z,97190.08
2018-02-10T22:08:56.180Z,97185.53
2018-02-10T22:11:24.034Z,97177.75
2018-02-10T22:13:51.897Z,97186.41
2018-02-10T22:16:20.892Z,97177.59
2018-02-10T22:18:48.655Z,97178.08
2018-02-10T22:21:17.853Z,97173.48
2018-02-10T22:23:45.495Z,97168.56
2018-02-10T22:26:13.260Z,97159.16
2018-02-10T22:28:41.247Z,97158.75
2018-02-10T22:31:08.993Z,97155.48
2018-02-10T22:33:37.135Z,97150.93
2018-02-10T22:36:06.195Z,97149.75
2018-02-10T22:38:34.146Z,97143.91
2018-02-10T22:41:02.013Z,97140.45
2018-02-10T22:43:29.879Z,97133.55
2018-02-10T22:45:58.054Z,97130.42
2018-02-10T22:48:26.023Z,97124.28
2018-02-10T22:50:53.792Z,97124.48
2018-02-10T22:53:21.960Z,97129.92
2018-02-10T22:55:49.544Z,97118.81
2018-02-10T22:58:17.283Z,97119.18
2018-02-10T23:00:45.006Z,97116.42
2018-02-10T23:03:12.606Z,97112.37
2018-02-10T23:05:40.245Z,97104.48
2018-02-10T23:08:07.945Z,97102.84
2018-02-10T23:10:36.001Z,97101.13
2018-02-10T23:13:05.004Z,97097.02
2018-02-10T23:15:32.860Z,97097.02
2018-02-10T23:18:00.828Z,97087.44
2018-02-10T23:20:28.469Z,97091.62
2018-02-10T23:22:56.459Z,97081.77
2018-02-10T23:25:24.224Z,97077.62
2018-02-10T23:27:51.886Z,97072.82
2018-02-10T23:30:19.437Z,97081.50
2018-02-10T23:32:47.356Z,97075.04
2018-02-10T23:35:16.406Z,97084.81
2018-02-10T23:37:44.279Z,97078.34
2018-02-10T23:40:12.242Z,97074.97
2018-02-10T23:42:40.097Z,97067.87
2018-02-10T23:45:07.876Z,97068.98
2018-02-10T23:47:36.156Z,97064.02
2018-02-10T23:50:04.014Z,97061.34
2018-02-10T23:52:31.880Z,97052.11
2018-02-10T23:54:59.746Z,97049.94
2018-02-10T23:57:27.515Z,97041.45
2018-02-10T23:59:55.556Z,97041.95
